Time;durP1;ratioP1;P1;durP2;ratioP2;P2;SDS_P1;SDS_P2;PMS_P1;PMS_P2;Temp;Humidity;BMP_temperature;BMP_pressure;BME280_temperature;BME280_humidity;BME280_pressure;Samples;Min_cycle;Max_cycle;Signal;HPM_P1;HPM_P2
2022/08/13 00:01:43;;;;;;;5.35;3.50;;;;;;;18.98;100.00;101510.94;6540003;22;20058;-82
2022/08/13 00:04:15;;;;;;;6.25;3.30;;;;;;;18.92;100.00;101519.78;6540313;22;19996;-82
2022/08/13 00:09:26;;;;;;;5.18;3.50;;;;;;;18.71;100.00;101513.97;6540504;22;20008;-82
2022/08/13 00:14:50;;;;;;;8.00;4.18;;;;;;;18.68;100.00;101516.19;6538718;22;20008;-81
2022/08/13 00:17:22;;;;;;;6.30;3.95;;;;;;;18.65;100.00;101520.13;6538746;22;20008;-82
2022/08/13 00:19:53;;;;;;;6.53;5.05;;;;;;;18.62;100.00;101511.53;6537741;22;20000;-81
2022/08/13 00:22:25;;;;;;;7.63;4.22;;;;;;;18.61;100.00;101516.06;6511181;22;20000;-82
2022/08/13 00:24:58;;;;;;;8.20;4.47;;;;;;;18.54;100.00;101514.28;6511692;22;19997;-84
2022/08/13 00:27:30;;;;;;;9.27;4.45;;;;;;;18.57;100.00;101519.31;6538965;22;19996;-84
2022/08/13 00:30:05;;;;;;;11.48;4.63;;;;;;;18.55;100.00;101519.50;6539159;22;20390;-83
2022/08/13 00:32:37;;;;;;;10.20;5.35;;;;;;;18.49;100.00;101506.69;6539250;22;19996;-84
2022/08/13 00:35:09;;;;;;;5.93;4.18;;;;;;;18.47;100.00;101514.13;6511855;22;20004;-84
2022/08/13 00:37:41;;;;;;;7.43;3.80;;;;;;;18.42;100.00;101519.22;6512923;22;19996;-83
2022/08/13 00:40:13;;;;;;;8.05;4.00;;;;;;;18.32;100.00;101517.59;6510798;22;20082;-83
2022/08/13 00:42:44;;;;;;;9.55;4.20;;;;;;;18.25;100.00;101508.53;6540072;22;20428;-83
2022/08/13 00:45:16;;;;;;;11.20;4.32;;;;;;;18.19;100.00;101511.09;6513794;22;20379;-83
2022/08/13 00:50:37;;;;;;;6.88;3.92;;;;;;;18.17;100.00;101519.38;6539842;22;20008;-82
2022/08/13 00:53:17;;;;;;;8.05;3.95;;;;;;;18.09;100.00;101525.66;6540642;22;20403;-83
2022/08/13 00:55:49;;;;;;;20.70;6.00;;;;;;;18.01;100.00;101522.97;6541129;22;20083;-83
2022/08/13 00:58:23;;;;;;;26.98;6.45;;;;;;;17.99;100.00;101514.22;6541929;22;19997;-82
2022/08/13 01:00:57;;;;;;;17.75;5.82;;;;;;;18.03;100.00;101520.13;6540313;22;20075;-83
2022/08/13 01:03:32;;;;;;;20.40;5.10;;;;;;;17.98;100.00;101517.94;6541208;22;20088;-83
2022/08/13 01:06:06;;;;;;;10.35;4.80;;;;;;;17.97;100.00;101515.41;6540312;22;20423;-83
2022/08/13 01:08:40;;;;;;;13.38;5.00;;;;;;;17.86;100.00;101517.44;6514192;22;20058;-83
2022/08/13 01:11:12;;;;;;;8.98;4.65;;;;;;;17.89;100.00;101525.22;6513509;22;20019;-83
2022/08/13 01:13:45;;;;;;;5.93;4.40;;;;;;;17.87;100.00;101518.31;6541346;22;19996;-83
2022/08/13 01:16:17;;;;;;;11.20;4.88;;;;;;;17.85;100.00;101517.63;6514061;22;20001;-83
2022/08/13 01:18:50;;;;;;;9.23;5.07;;;;;;;17.84;100.00;101519.47;6514233;22;19996;-83
2022/08/13 01:21:25;;;;;;;9.00;4.65;;;;;;;17.75;100.00;101513.25;6513837;22;19999;-83
2022/08/13 01:23:56;;;;;;;5.82;4.65;;;;;;;17.77;100.00;101516.59;6540621;22;19992;-83
2022/08/13 01:26:30;;;;;;;7.88;4.47;;;;;;;17.69;100.00;101524.75;6540682;22;20007;-83
2022/08/13 01:29:04;;;;;;;9.27;5.10;;;;;;;17.68;100.00;101533.00;6539864;22;19996;-83
2022/08/13 01:31:36;;;;;;;10.18;4.57;;;;;;;17.64;100.00;101531.69;6540179;22;20006;-83
2022/08/13 01:34:07;;;;;;;9.68;4.60;;;;;;;17.64;100.00;101527.13;6540669;22;20668;-83
2022/08/13 01:36:40;;;;;;;8.75;4.68;;;;;;;17.60;100.00;101533.88;6541155;22;20330;-83
2022/08/13 01:39:12;;;;;;;5.50;4.97;;;;;;;17.56;100.00;101527.13;6540261;22;20004;-82
2022/08/13 01:41:44;;;;;;;11.75;4.88;;;;;;;17.53;100.00;101524.75;6513313;22;20011;-82
2022/08/13 01:44:17;;;;;;;6.18;4.70;;;;;;;17.48;100.00;101533.38;6540573;22;20116;-82
2022/08/13 01:52:41;;;;;;;5.82;4.43;;;;;;;17.35;100.00;101527.66;6540210;22;20008;-82
2022/08/13 01:55:13;;;;;;;11.30;6.25;;;;;;;17.37;100.00;101528.34;6540870;22;20058;-83
2022/08/13 01:57:46;;;;;;;7.30;5.28;;;;;;;17.28;100.00;101522.09;6513949;22;20008;-82
2022/08/13 02:00:21;;;;;;;13.45;5.63;;;;;;;17.23;100.00;101529.84;6540631;22;20403;-82
2022/08/13 02:02:52;;;;;;;10.52;4.72;;;;;;;17.21;100.00;101523.81;6540328;22;20000;-82
2022/08/13 02:05:24;;;;;;;7.13;5.40;;;;;;;17.16;100.00;101524.34;6539928;22;20441;-82
2022/08/13 02:07:57;;;;;;;6.18;4.75;;;;;;;17.20;100.00;101522.97;6541010;22;20000;-82
2022/08/13 02:10:28;;;;;;;9.60;5.57;;;;;;;17.14;100.00;101522.81;6540774;22;20434;-81
2022/08/13 02:13:00;;;;;;;9.05;5.47;;;;;;;17.13;100.00;101521.13;6541018;22;20019;-82
2022/08/13 02:15:31;;;;;;;8.23;5.07;;;;;;;17.13;100.00;101521.13;6541263;22;20099;-81
2022/08/13 02:18:04;;;;;;;8.88;5.20;;;;;;;17.03;100.00;101525.84;6540592;22;20339;-82
2022/08/13 02:20:36;;;;;;;10.60;5.18;;;;;;;16.95;100.00;101518.59;6540709;22;20007;-82
2022/08/13 02:23:08;;;;;;;7.72;5.05;;;;;;;16.93;100.00;101520.59;6540142;22;20004;-81
2022/08/13 02:25:41;;;;;;;8.23;4.90;;;;;;;16.84;100.00;101514.38;6513065;22;20071;-82
2022/08/13 02:28:14;;;;;;;10.18;5.07;;;;;;;16.85;100.00;101515.22;6540453;22;20334;-82
2022/08/13 02:30:47;;;;;;;7.90;5.35;;;;;;;16.79;100.00;101522.06;6540500;22;20012;-81
2022/08/13 02:33:20;;;;;;;8.57;5.18;;;;;;;16.81;100.00;101523.63;6513013;22;20063;-82
2022/08/13 02:35:51;;;;;;;7.07;5.07;;;;;;;16.71;100.00;101516.69;6513679;22;20087;-82
2022/08/13 02:38:23;;;;;;;17.45;5.30;;;;;;;16.66;100.00;101521.75;6540476;22;20001;-81
2022/08/13 02:43:49;;;;;;;10.05;5.53;;;;;;;16.57;100.00;101519.03;6539900;22;20815;-82
2022/08/13 02:46:21;;;;;;;9.20;5.60;;;;;;;16.55;100.00;101514.78;6540758;22;20291;-82
2022/08/13 02:48:53;;;;;;;12.40;6.13;;;;;;;16.58;100.00;101519.88;6540447;22;20040;-82
2022/08/13 02:51:26;;;;;;;10.82;5.68;;;;;;;16.53;100.00;101519.50;6539413;22;20019;-82
2022/08/13 02:54:00;;;;;;;6.90;5.47;;;;;;;16.49;100.00;101523.56;6539636;22;20024;-82
2022/08/13 02:56:31;;;;;;;10.27;5.60;;;;;;;16.46;100.00;101516.63;6513519;22;20099;-82
2022/08/13 02:59:08;;;;;;;14.35;6.07;;;;;;;16.46;100.00;101522.00;6540240;22;20039;-82
2022/08/13 03:01:40;;;;;;;20.13;6.28;;;;;;;16.42;100.00;101523.34;6540192;22;20411;-82
2022/08/13 03:04:15;;;;;;;20.52;6.55;;;;;;;16.38;100.00;101520.16;6539221;22;19992;-82
2022/08/13 03:06:46;;;;;;;10.43;6.07;;;;;;;16.40;100.00;101526.22;6513127;22;20003;-82
2022/08/13 03:09:23;;;;;;;14.75;5.85;;;;;;;16.38;100.00;101524.72;6539388;22;19996;-82
2022/08/13 03:11:59;;;;;;;8.88;5.97;;;;;;;16.33;100.00;101525.19;6539725;22;20032;-82
2022/08/13 03:14:35;;;;;;;11.50;6.18;;;;;;;16.32;100.00;101526.22;6538825;22;20007;-82
2022/08/13 03:17:07;;;;;;;18.52;6.13;;;;;;;16.36;100.00;101526.72;6539990;22;20011;-82
2022/08/13 03:19:38;;;;;;;13.00;5.28;;;;;;;16.31;100.00;101524.50;6539234;22;20011;-82
2022/08/13 03:22:10;;;;;;;9.82;5.50;;;;;;;16.23;100.00;101521.78;6540346;22;20326;-82
2022/08/13 03:24:41;;;;;;;9.00;5.53;;;;;;;16.23;100.00;101528.03;6512022;22;20007;-82
2022/08/13 03:27:12;;;;;;;10.88;5.90;;;;;;;16.14;100.00;101523.59;6539474;22;20000;-82
2022/08/13 03:29:44;;;;;;;10.60;6.15;;;;;;;16.11;100.00;101518.56;6538770;22;20342;-82
2022/08/13 03:32:17;;;;;;;12.35;5.50;;;;;;;16.15;100.00;101529.84;6513545;22;19996;-82
2022/08/13 03:34:48;;;;;;;7.20;5.45;;;;;;;16.06;100.00;101524.44;6538775;22;19996;-82
2022/08/13 03:37:19;;;;;;;7.38;5.47;;;;;;;15.99;100.00;101531.47;6539023;22;20000;-82
2022/08/13 03:39:52;;;;;;;10.48;5.57;;;;;;;15.97;100.00;101522.72;6539090;22;19993;-82
2022/08/13 03:42:23;;;;;;;8.77;5.38;;;;;;;15.88;100.00;101523.66;6539484;22;20031;-82
2022/08/13 03:44:55;;;;;;;10.43;5.70;;;;;;;15.84;100.00;101519.63;6505865;22;20387;-82
2022/08/13 03:47:26;;;;;;;7.90;5.47;;;;;;;15.83;100.00;101524.16;6507628;22;20004;-82
2022/08/13 03:50:04;;;;;;;9.70;5.50;;;;;;;15.74;100.00;101518.84;6505881;22;20001;-82
2022/08/13 03:52:36;;;;;;;10.40;5.82;;;;;;;15.67;100.00;101527.56;6507539;22;19992;-82
2022/08/13 03:55:11;;;;;;;7.00;5.30;;;;;;;15.66;100.00;101520.50;6506350;22;20335;-82
2022/08/13 03:57:44;;;;;;;10.27;5.65;;;;;;;15.64;100.00;101519.81;6507664;22;20047;-82
2022/08/13 04:00:16;;;;;;;10.90;6.07;;;;;;;15.63;100.00;101520.81;6506571;22;20370;-82
2022/08/13 04:02:47;;;;;;;6.80;5.60;;;;;;;15.67;100.00;101514.13;6506852;22;20107;-82
2022/08/13 04:05:18;;;;;;;10.82;5.40;;;;;;;15.56;100.00;101510.84;6508430;22;20339;-82
2022/08/13 04:07:51;;;;;;;8.68;6.40;;;;;;;15.53;100.00;101519.22;6509366;22;20001;-82
2022/08/13 04:10:23;;;;;;;10.55;6.38;;;;;;;15.50;100.00;101517.72;6507443;22;19993;-82
2022/08/13 04:12:54;;;;;;;6.65;5.80;;;;;;;15.47;100.00;101515.34;6509047;22;20080;-82
2022/08/13 04:15:25;;;;;;;7.43;6.18;;;;;;;15.51;100.00;101516.69;6507946;22;20399;-82
2022/08/13 04:17:57;;;;;;;8.25;6.30;;;;;;;15.49;100.00;101510.66;6508898;22;20007;-82
2022/08/13 04:20:30;;;;;;;7.05;6.07;;;;;;;15.49;100.00;101521.41;6505894;22;19993;-81
2022/08/13 04:23:09;;;;;;;8.98;5.85;;;;;;;15.51;100.00;101527.44;6508132;22;20340;-81
2022/08/13 04:25:45;;;;;;;8.13;5.95;;;;;;;15.52;100.00;101533.69;6506746;22;20035;-81
2022/08/13 04:28:18;;;;;;;;;;;;;;;15.40;100.00;101530.41;6508363;22;20366;-81
2022/08/13 04:30:50;;;;;;;9.73;6.13;;;;;;;15.50;100.00;101532.00;6508299;22;19908;-81
2022/08/13 04:33:21;;;;;;;11.75;5.55;;;;;;;15.50;100.00;101529.31;6508397;22;20430;-81
2022/08/13 04:35:52;;;;;;;8.15;5.63;;;;;;;15.54;100.00;101537.91;6508466;22;20008;-81
2022/08/13 04:38:24;;;;;;;11.52;5.68;;;;;;;15.60;100.00;101533.72;6508744;22;20036;-81
2022/08/13 04:40:56;;;;;;;10.40;6.22;;;;;;;15.59;100.00;101534.75;6508278;22;20004;-81
2022/08/13 04:43:27;;;;;;;9.85;6.03;;;;;;;15.56;100.00;101529.69;6508333;22;20000;-81
2022/08/13 04:46:00;;;;;;;7.75;5.72;;;;;;;15.56;100.00;101535.88;6539527;22;20004;-80
2022/08/13 04:48:35;;;;;;;12.05;5.85;;;;;;;15.58;100.00;101530.34;6540954;22;20379;-81
2022/08/13 04:51:06;;;;;;;12.23;6.00;;;;;;;15.60;100.00;101537.28;6540023;22;20012;-81
2022/08/13 04:53:40;;;;;;;12.13;6.25;;;;;;;15.58;100.00;101533.03;6514591;22;20007;-81
2022/08/13 04:56:12;;;;;;;12.88;6.30;;;;;;;15.63;100.00;101536.09;6540688;22;20007;-81
2022/08/13 04:58:44;;;;;;;8.82;5.97;;;;;;;15.61;100.00;101530.88;6541181;22;20371;-81
2022/08/13 05:01:15;;;;;;;9.70;6.10;;;;;;;15.67;100.00;101538.31;6540726;22;19999;-81
2022/08/13 05:03:47;;;;;;;12.90;5.70;;;;;;;15.73;100.00;101544.91;6513630;22;20132;-81
2022/08/13 05:06:21;;;;;;;7.95;5.82;;;;;;;15.68;100.00;101534.63;6513997;22;20000;-81
2022/08/13 05:08:53;;;;;;;12.70;6.72;;;;;;;15.76;100.00;101539.25;6514482;22;20027;-81
2022/08/13 05:11:24;;;;;;;9.55;6.45;;;;;;;15.81;100.00;101552.19;6540660;22;19996;-80
2022/08/13 05:13:55;;;;;;;11.43;6.18;;;;;;;15.87;100.00;101541.66;6541087;22;20003;-81
2022/08/13 05:16:27;;;;;;;8.55;6.07;;;;;;;15.87;100.00;101541.66;6514471;22;20087;-81
2022/08/13 05:18:58;;;;;;;11.90;5.97;;;;;;;15.95;100.00;101545.38;6540699;22;20003;-81
2022/08/13 05:21:30;;;;;;;14.38;6.47;;;;;;;16.01;100.00;101539.38;6541417;22;19992;-81
2022/08/13 05:24:01;;;;;;;13.45;6.10;;;;;;;16.23;100.00;101546.00;6541184;22;20000;-82
2022/08/13 05:26:33;;;;;;;8.20;6.05;;;;;;;16.41;100.00;101540.53;6539860;22;20000;-81
2022/08/13 05:29:04;;;;;;;15.60;6.40;;;;;;;16.76;100.00;101552.03;6540037;22;20027;-82
2022/08/13 05:31:36;;;;;;;16.15;6.70;;;;;;;16.97;100.00;101557.84;6540446;22;20003;-82
2022/08/13 05:34:07;;;;;;;10.50;6.85;;;;;;;17.24;100.00;101550.44;6540511;22;20000;-82
2022/08/13 05:36:42;;;;;;;14.00;6.50;;;;;;;17.49;100.00;101553.94;6540680;22;20010;-82
2022/08/13 05:39:14;;;;;;;15.88;6.18;;;;;;;17.77;100.00;101553.56;6540893;22;20023;-82
2022/08/13 05:41:47;;;;;;;11.63;6.13;;;;;;;17.95;100.00;101543.41;6541628;22;19996;-82
2022/08/13 05:44:19;;;;;;;11.05;6.03;;;;;;;18.27;100.00;101538.91;6513938;22;20012;-82
2022/08/13 05:46:52;;;;;;;6.70;5.50;;;;;;;18.54;100.00;101544.00;6514796;22;19996;-82
2022/08/13 05:49:23;;;;;;;10.30;6.13;;;;;;;18.80;100.00;101551.75;6513598;22;20450;-82
2022/08/13 05:51:54;;;;;;;14.32;6.13;;;;;;;19.08;100.00;101552.91;6541118;22;20019;-82
2022/08/13 05:54:26;;;;;;;8.48;5.25;;;;;;;19.31;100.00;101549.34;6541511;22;19999;-82
2022/08/13 05:56:57;;;;;;;11.57;6.25;;;;;;;19.57;100.00;101553.50;6541394;22;20008;-82
2022/08/13 06:05:08;;;;;;;16.45;5.93;;;;;;;20.45;100.00;101543.69;6540219;22;20004;-83
2022/08/13 06:07:40;;;;;;;10.32;5.47;;;;;;;20.52;100.00;101544.59;6540594;22;20326;-83
2022/08/13 06:10:14;;;;;;;10.90;5.25;;;;;;;21.12;100.00;101549.81;6539639;22;20367;-82
2022/08/13 06:12:47;;;;;;;10.00;5.65;;;;;;;21.29;100.00;101553.09;6540779;22;19996;-81
2022/08/13 06:15:21;;;;;;;9.45;5.65;;;;;;;21.30;100.00;101549.31;6570996;22;20037;-81
2022/08/13 06:17:53;;;;;;;10.18;5.40;;;;;;;21.93;100.00;101546.63;6569941;22;20257;-80
2022/08/13 06:20:24;;;;;;;12.68;5.40;;;;;;;22.05;100.00;101547.78;6569733;22;19996;-82
2022/08/13 06:22:56;;;;;;;11.63;4.65;;;;;;;22.26;100.00;101544.09;6570775;22;19989;-81
2022/08/13 06:25:28;;;;;;;6.68;4.47;;;;;;;22.43;100.00;101541.88;6550276;22;20000;-82
2022/08/13 06:28:00;;;;;;;7.78;4.50;;;;;;;23.26;100.00;101551.66;6541396;22;20362;-82
2022/08/13 06:30:36;;;;;;;10.55;4.65;;;;;;;23.22;100.00;101551.25;6540247;22;19997;-82
2022/08/13 06:33:07;;;;;;;12.43;4.78;;;;;;;23.47;100.00;101547.03;6540866;22;20801;-82
2022/08/13 06:35:40;;;;;;;8.25;4.60;;;;;;;24.16;100.00;101551.09;6513514;22;20008;-82
2022/08/13 06:38:12;;;;;;;10.05;4.30;;;;;;;24.62;100.00;101547.34;6539169;22;19988;-82
2022/08/13 06:40:44;;;;;;;7.13;4.10;;;;;;;24.65;98.38;101546.03;6513080;22;20000;-83
2022/08/13 06:43:17;;;;;;;7.28;3.90;;;;;;;24.83;91.17;101548.88;6539927;22;19992;-82
2022/08/13 06:45:48;;;;;;;3.75;3.05;;;;;;;25.22;86.44;101556.97;6540710;22;20019;-81
2022/08/13 06:48:19;;;;;;;6.25;3.83;;;;;;;25.31;83.62;101550.22;6539647;22;20327;-81
2022/08/13 06:50:51;;;;;;;5.30;3.37;;;;;;;25.79;80.02;101545.94;6537172;22;20367;-81
2022/08/13 06:53:22;;;;;;;7.38;3.20;;;;;;;26.05;75.85;101555.78;6538152;22;20779;-81
2022/08/13 06:55:54;;;;;;;6.97;3.40;;;;;;;26.28;74.05;101551.50;6538458;22;20039;-82
2022/08/13 06:58:28;;;;;;;7.40;2.92;;;;;;;26.50;71.47;101549.94;6537072;22;20000;-82
2022/08/13 07:00:59;;;;;;;5.57;3.17;;;;;;;26.27;69.95;101552.59;6537076;22;20737;-81
2022/08/13 07:03:33;;;;;;;6.30;3.17;;;;;;;26.97;68.91;101549.28;6537901;22;19996;-82
2022/08/13 07:06:16;;;;;;;6.35;4.03;;;;;;;27.29;67.06;101554.47;6511068;22;19996;-82
2022/08/13 07:08:48;;;;;;;6.57;3.55;;;;;;;27.88;65.14;101558.03;6537868;22;20000;-81
2022/08/13 07:11:22;;;;;;;8.88;3.25;;;;;;;28.04;62.02;101556.47;6537889;22;20048;-82
2022/08/13 07:13:55;;;;;;;5.88;3.05;;;;;;;28.36;59.20;101557.94;6537037;22;20495;-82
2022/08/13 07:16:30;;;;;;;10.57;3.70;;;;;;;28.17;58.19;101558.09;6539745;22;20043;-82
2022/08/13 07:19:02;;;;;;;5.80;2.67;;;;;;;29.04;55.12;101569.91;6538099;22;20438;-83
2022/08/13 07:21:34;;;;;;;4.28;2.85;;;;;;;29.03;53.55;101558.09;6512170;22;19997;-82
2022/08/13 07:24:07;;;;;;;9.70;3.20;;;;;;;29.34;52.70;101560.53;6538880;22;19996;-79
2022/08/13 07:26:39;;;;;;;3.97;2.47;;;;;;;28.92;52.20;101556.25;6537053;22;20005;-82
2022/08/13 07:29:10;;;;;;;4.95;2.78;;;;;;;30.22;49.42;101566.16;6510555;22;20047;-81
2022/08/13 07:31:41;;;;;;;4.40;2.60;;;;;;;30.31;48.23;101563.78;6538103;22;20062;-82
2022/08/13 07:34:12;;;;;;;7.45;2.50;;;;;;;30.52;45.37;101567.63;6539023;22;20335;-82
2022/08/13 07:36:44;;;;;;;10.17;2.30;;;;;;;31.01;44.69;101559.28;6537602;22;42112;-82
2022/08/13 07:39:16;;;;;;;3.35;2.30;;;;;;;31.31;42.73;101566.13;6539363;22;20403;-81
2022/08/13 07:41:47;;;;;;;6.40;2.10;;;;;;;31.32;41.96;101567.00;6538925;22;19996;-80
2022/08/13 07:44:20;;;;;;;5.80;2.20;;;;;;;31.53;41.36;101568.81;6503834;22;20340;-79
2022/08/13 07:46:53;;;;;;;5.97;2.65;;;;;;;31.89;40.93;101569.03;6505977;22;20208;-81
2022/08/13 07:49:26;;;;;;;5.43;1.73;;;;;;;32.69;38.33;101562.41;6506498;22;20070;-79
2022/08/13 07:51:57;;;;;;;5.25;2.20;;;;;;;32.49;38.42;101555.72;6506779;22;20000;-80
2022/08/13 07:54:29;;;;;;;4.20;1.85;;;;;;;31.24;39.00;101563.63;6506215;22;20001;-80
2022/08/13 07:57:01;;;;;;;5.35;1.73;;;;;;;32.38;36.87;101567.81;6507815;22;20001;-80
2022/08/13 07:59:32;;;;;;;5.03;1.90;;;;;;;32.96;36.26;101562.13;6507163;22;20083;-80
2022/08/13 08:02:06;;;;;;;5.13;2.03;;;;;;;33.84;34.89;101568.44;6507806;22;20075;-80
2022/08/13 08:04:38;;;;;;;3.67;1.83;;;;;;;33.81;35.09;101569.00;6506627;22;19993;-80
2022/08/13 08:07:14;;;;;;;4.88;1.90;;;;;;;33.30;35.10;101567.97;6505849;22;20396;-80
2022/08/13 08:09:45;;;;;;;3.13;1.85;;;;;;;33.79;35.24;101572.03;6505364;22;20584;-80
2022/08/13 08:12:35;;;;;;;4.38;1.67;;;;;;;35.02;32.53;101559.44;6505923;22;20093;-80
2022/08/13 08:15:08;;;;;;;6.10;1.88;;;;;;;35.30;31.47;101568.91;6505846;22;19997;-80
2022/08/13 08:17:40;;;;;;;4.20;1.80;;;;;;;34.76;30.94;101575.47;6506165;22;20009;-80
2022/08/13 08:20:21;;;;;;;9.50;2.40;;;;;;;35.31;30.89;101569.75;6504036;22;20071;-80
2022/08/13 08:22:53;;;;;;;5.97;1.60;;;;;;;34.65;30.95;101574.69;6507136;22;20138;-79
2022/08/13 08:25:24;;;;;;;5.90;1.42;;;;;;;34.79;30.35;101583.19;6504390;22;20004;-79
2022/08/13 08:27:56;;;;;;;6.47;1.65;;;;;;;36.69;28.57;101575.56;6506744;22;19996;-80
2022/08/13 08:30:28;;;;;;;4.05;1.45;;;;;;;37.28;28.34;101579.59;6506047;22;20103;-79
2022/08/13 08:33:00;;;;;;;4.60;1.40;;;;;;;37.63;27.61;101573.66;6507315;22;20083;-80
2022/08/13 08:35:33;;;;;;;4.80;1.58;;;;;;;37.91;26.38;101570.91;6506044;22;19993;-79
2022/08/13 08:43:46;;;;;;;3.80;1.48;;;;;;;38.60;24.75;101583.91;6508584;22;20001;-80
2022/08/13 08:46:20;;;;;;;2.90;1.40;;;;;;;39.44;23.74;101576.75;6538577;22;19996;-79
2022/08/13 08:48:54;;;;;;;6.45;1.27;;;;;;;39.56;23.27;101579.78;6539367;22;20433;-79
2022/08/13 08:51:26;;;;;;;5.13;1.50;;;;;;;39.17;24.27;101577.75;6538529;22;19992;-80
2022/08/13 08:54:00;;;;;;;7.75;1.70;;;;;;;40.19;23.41;101569.31;6537777;22;20004;-79
2022/08/13 08:56:34;;;;;;;4.25;1.45;;;;;;;40.08;23.23;101566.00;6538466;22;20004;-80
2022/08/13 08:59:05;;;;;;;3.05;1.55;;;;;;;41.90;21.56;101570.78;6538753;22;20088;-80
2022/08/13 09:01:36;;;;;;;5.87;1.20;;;;;;;42.10;21.05;101570.03;6539400;22;20003;-79
2022/08/13 09:04:09;;;;;;;2.65;1.17;;;;;;;42.28;20.70;101570.72;6539118;22;20682;-79
2022/08/13 09:06:43;;;;;;;3.63;1.30;;;;;;;42.81;20.30;101578.69;6538250;22;20362;-80
2022/08/13 09:09:16;;;;;;;3.53;1.47;;;;;;;43.44;19.60;101578.50;6538112;22;20380;-79
2022/08/13 09:11:49;;;;;;;6.68;1.30;;;;;;;43.79;19.02;101567.66;6538263;22;21028;-79
2022/08/13 09:14:25;;;;;;;3.53;1.10;;;;;;;42.94;19.37;101571.13;6539328;22;19996;-78
2022/08/13 09:16:59;;;;;;;4.95;1.30;;;;;;;43.46;19.24;101559.31;6537197;22;20000;-80
2022/08/13 09:19:30;;;;;;;3.42;1.20;;;;;;;44.49;18.80;101560.13;6538703;22;19984;-80
2022/08/13 09:22:01;;;;;;;2.65;1.00;;;;;;;43.28;18.95;101558.72;6538528;22;20018;-80
2022/08/13 09:24:37;;;;;;;5.00;1.33;;;;;;;44.34;18.07;101556.06;6538699;22;19996;-79
2022/08/13 09:27:08;;;;;;;4.43;1.27;;;;;;;43.92;18.37;101550.78;6512259;22;20232;-79
2022/08/13 09:29:40;;;;;;;3.08;1.20;;;;;;;43.65;18.83;101546.69;6537972;22;19992;-81
2022/08/13 09:32:15;;;;;;;3.53;1.15;;;;;;;44.29;18.04;101559.97;6538660;22;19996;-79
2022/08/13 09:34:46;;;;;;;5.53;1.20;;;;;;;44.74;17.79;101550.44;6511206;22;19996;-78
2022/08/13 09:37:17;;;;;;;5.28;1.00;;;;;;;44.89;16.90;101559.25;6538028;22;20442;-80
2022/08/13 09:39:53;;;;;;;3.38;1.27;;;;;;;45.39;17.42;101554.94;6538434;22;19996;-79
2022/08/13 09:42:27;;;;;;;2.78;1.13;;;;;;;46.29;16.41;101554.22;6538020;22;19988;-78
2022/08/13 09:44:59;;;;;;;;;;;;;;;48.71;15.74;101556.03;6538568;22;20016;-79
2022/08/13 09:47:31;;;;;;;7.07;1.20;;;;;;;45.52;17.19;101550.03;6538237;22;19907;-79
2022/08/13 09:50:03;;;;;;;4.95;1.13;;;;;;;46.45;16.64;101551.31;6538622;22;19996;-79
2022/08/13 09:52:34;;;;;;;1.73;0.95;;;;;;;46.11;16.76;101548.19;6538500;22;19996;-79
2022/08/13 09:55:06;;;;;;;3.72;0.98;;;;;;;47.00;15.40;101551.19;6539184;22;20442;-79
2022/08/13 09:57:51;;;;;;;5.97;0.77;;;;;;;47.65;15.21;101535.31;6538650;22;20012;-79
2022/08/13 10:00:24;;;;;;;4.15;0.90;;;;;;;47.56;14.51;101532.75;6536248;22;19988;-80
2022/08/13 10:02:59;;;;;;;3.72;0.70;;;;;;;45.91;15.71;101530.44;6538024;22;20366;-80
2022/08/13 10:05:35;;;;;;;3.45;0.80;;;;;;;47.01;14.82;101535.03;6511483;22;20330;-80
2022/08/13 10:08:13;;;;;;;3.63;0.73;;;;;;;47.68;14.00;101531.75;6537771;22;19993;-79
2022/08/13 10:10:47;;;;;;;4.47;1.00;;;;;;;46.01;14.92;101518.56;6538340;22;20000;-79
2022/08/13 10:13:18;;;;;;;2.53;1.02;;;;;;;48.11;13.76;101531.50;6539239;22;19996;-79
2022/08/13 10:15:49;;;;;;;2.53;0.80;;;;;;;47.65;13.69;101516.34;6538793;22;20490;-79
2022/08/13 10:18:21;;;;;;;1.50;0.77;;;;;;;46.91;13.81;101514.75;6511812;22;20091;-79
2022/08/13 10:20:53;;;;;;;1.80;0.60;;;;;;;48.75;12.71;101508.84;6537895;22;20571;-79
2022/08/13 10:23:24;;;;;;;4.18;0.73;;;;;;;48.65;12.72;101513.16;6510845;22;20000;-79
2022/08/13 10:25:55;;;;;;;1.67;0.70;;;;;;;47.87;13.44;101511.81;6511816;22;19996;-80
2022/08/13 10:28:32;;;;;;;3.53;0.77;;;;;;;46.98;13.90;101509.22;6511092;22;20012;-80
2022/08/13 10:31:08;;;;;;;1.35;0.52;;;;;;;46.25;14.66;101501.75;6538929;22;20067;-81
2022/08/13 10:33:39;;;;;;;3.67;0.60;;;;;;;47.59;12.71;101509.38;6511127;22;19997;-81
2022/08/13 10:36:11;;;;;;;3.23;0.90;;;;;;;48.69;12.36;101499.03;6538979;22;20104;-81
2022/08/13 10:38:42;;;;;;;2.83;0.60;;;;;;;46.77;13.06;101498.34;6537954;22;20231;-79
2022/08/13 10:41:15;;;;;;;3.15;0.63;;;;;;;47.46;12.78;101505.16;6538186;22;20397;-79
2022/08/13 10:43:47;;;;;;;1.73;0.50;;;;;;;49.65;11.79;101501.03;6512071;22;19996;-79
2022/08/13 10:46:20;;;;;;;4.50;0.55;;;;;;;49.15;11.76;101505.16;6538512;22;20071;-79
2022/08/13 10:48:55;;;;;;;2.50;0.60;;;;;;;49.25;11.59;101486.59;6537869;22;19993;-79
2022/08/13 10:51:28;;;;;;;3.58;0.70;;;;;;;48.52;11.70;101498.47;6536844;22;20000;-79
2022/08/13 10:53:59;;;;;;;0.90;0.40;;;;;;;48.49;11.87;101495.63;6538940;22;19996;-79
2022/08/13 10:56:32;;;;;;;3.22;0.70;;;;;;;49.55;11.32;101485.59;6534650;22;20227;-79
2022/08/13 10:59:04;;;;;;;1.20;0.55;;;;;;;49.91;11.76;101492.28;6536238;22;19996;-79
2022/08/13 11:01:35;;;;;;;1.23;0.50;;;;;;;49.75;11.00;101484.06;6536255;22;20429;-80
2022/08/13 11:04:07;;;;;;;1.60;0.50;;;;;;;50.17;10.94;101481.84;6508643;22;20079;-80
2022/08/13 11:06:40;;;;;;;3.67;0.52;;;;;;;51.06;10.66;101486.84;6536773;22;20543;-80
2022/08/13 11:09:12;;;;;;;4.77;0.60;;;;;;;50.45;11.06;101491.66;6535721;22;20007;-80
2022/08/13 11:11:43;;;;;;;6.47;0.60;;;;;;;49.84;11.39;101486.56;6536910;22;20005;-80
2022/08/13 11:14:18;;;;;;;4.03;0.73;;;;;;;49.36;11.18;101479.00;6511823;22;20406;-80
2022/08/13 11:19:25;;;;;;;3.20;0.70;;;;;;;50.26;11.54;101472.97;6540006;22;20012;-80
2022/08/13 11:21:56;;;;;;;1.58;0.50;;;;;;;50.01;11.62;101478.56;6537578;22;19999;-80
2022/08/13 11:24:28;;;;;;;2.50;0.57;;;;;;;49.32;10.96;101472.50;6537502;22;19997;-80
2022/08/13 11:26:59;;;;;;;2.83;0.60;;;;;;;50.08;10.83;101458.72;6538299;22;20239;-80
2022/08/13 11:29:30;;;;;;;0.70;0.60;;;;;;;50.48;10.77;101457.59;6538550;22;20058;-79
2022/08/13 11:32:03;;;;;;;2.95;0.55;;;;;;;49.32;11.04;101449.00;6539873;22;19998;-80
2022/08/13 11:34:34;;;;;;;1.75;0.65;;;;;;;50.42;10.83;101453.53;6539405;22;20004;-80
2022/08/13 11:37:06;;;;;;;0.45;0.45;;;;;;;50.25;10.63;101457.97;6512308;22;20079;-80
2022/08/13 11:39:37;;;;;;;2.03;0.70;;;;;;;50.05;11.29;101456.69;6538785;22;20743;-80
2022/08/13 11:42:08;;;;;;;1.85;0.60;;;;;;;50.14;10.57;101452.22;6538155;22;20000;-81
2022/08/13 11:44:39;;;;;;;3.00;0.57;;;;;;;49.36;11.21;101452.69;6536592;22;20013;-80
2022/08/13 11:47:11;;;;;;;2.43;0.60;;;;;;;51.10;10.36;101461.28;6537736;22;20265;-80
2022/08/13 11:49:43;;;;;;;2.67;0.55;;;;;;;50.68;10.57;101452.34;6537431;22;19996;-80
2022/08/13 11:52:14;;;;;;;3.45;0.63;;;;;;;50.31;11.04;101447.03;6537074;22;19996;-80
2022/08/13 11:54:45;;;;;;;3.05;0.63;;;;;;;50.95;10.44;101442.63;6539788;22;19996;-80
2022/08/13 11:57:16;;;;;;;2.30;0.60;;;;;;;49.97;10.67;101440.84;6511319;22;20773;-80
2022/08/13 11:59:48;;;;;;;1.13;0.70;;;;;;;49.18;11.35;101453.41;6537458;22;32024;-80
2022/08/13 12:02:20;;;;;;;2.17;0.50;;;;;;;48.39;11.57;101446.22;6537516;22;20042;-80
2022/08/13 12:04:51;;;;;;;3.60;0.70;;;;;;;49.59;11.54;101452.44;6512438;22;20001;-79
2022/08/13 12:07:24;;;;;;;4.60;0.60;;;;;;;50.46;10.66;101447.84;6536648;22;20000;-80
2022/08/13 12:09:55;;;;;;;5.13;0.60;;;;;;;49.53;11.56;101442.69;6536796;22;20427;-83
2022/08/13 12:12:26;;;;;;;3.53;0.70;;;;;;;49.16;11.14;101455.00;6511333;22;20000;-82
2022/08/13 12:15:01;;;;;;;1.65;0.60;;;;;;;49.46;11.38;101440.63;6539609;22;20771;-82